Hlavní strana
METAR-TAF:

METAR-TAF

Letiště :

Letiště Berlín-Tegel

Berlín, Německo

zeměpisná šířka: 52-34N, zeměpisná délka: 013-19E, výška: 37 m

Aktuální stav počasí

Zpráva byla vytvořena před 38 minutami, v 23:50 UTC
Západní vítr 16 kt
Teplota 6°C
Vlhkost vzduchu 75%
Tlak 1002 hPa
Viditelnost 10 km a více
Oblačno až skoro zataženo ve výšce 1700 ft

METAR: EDDT 092350Z 28016KT 9999 BKN017 06/02 Q1002

Čas: 01:28 (00:28 UTC)

Předpověď počasí

Zpráva byla vytvořena před 1 hodinou a 28 minutami, v 23:00 UTC
Předpověď platná od 10 v 00 UTC do 10 v 24 UTC
Západní vítr 20 kt s nárazy do 30 kt
Viditelnost 10 km a více
Oblačno až skoro zataženo ve výšce 2500 ft
Pravděpodobnost 30% :
Dočasný
od 10 v 14 UTC do 10 v 19 UTC
Oblačno až skoro zataženo ve výšce 2000 ft, Cumulonimbus.
dešťové přeháňky
Změna
od 10 v 15 UTC do 10 v 18 UTC
Západní vítr 15 kt s nárazy do 25 kt

TAF: EDDT 092300Z 1000/1024 27020G30KT 9999 BKN025 PROB30 TEMPO 1014/1019 SHRA BKN020CB BECMG 1015/1018 27015G25KT

Stav a předpovědi počasí z více než 4 000 letišť (zprávy METAR a TAF).

Červené a žluté tečky na mapě představují dostupné meteorologické stanice.

Když kurzor umístíte na tečku, zobrazí se název stanice.

Pak kliknutím zobrazíte stav a předpověď počasí.

Chcete-li změnit mapu, kliknutím na zelené tlačítko se znaménkem +mapu přiblížíte, kliknutím na zelené tlačítko se znaménkem – mapu oddálíte a kliknutím na zelené šipky přejdete na sousední mapy.


METAR-TAF: